sensor_id;sensor_type;location;lat;lon;timestamp;temperature;humidity
65478;SHT31;53678;39.642;22.430;2023-02-15T00:00:12;5.18;66.87
65478;SHT31;53678;39.642;22.430;2023-02-15T00:02:39;5.12;66.72
65478;SHT31;53678;39.642;22.430;2023-02-15T00:05:05;4.96;67.19
65478;SHT31;53678;39.642;22.430;2023-02-15T00:07:31;4.93;67.16
65478;SHT31;53678;39.642;22.430;2023-02-15T00:09:56;4.88;67.47
65478;SHT31;53678;39.642;22.430;2023-02-15T00:12:22;5.16;66.62
65478;SHT31;53678;39.642;22.430;2023-02-15T00:14:48;5.26;66.13
65478;SHT31;53678;39.642;22.430;2023-02-15T00:17:14;5.26;66.19
65478;SHT31;53678;39.642;22.430;2023-02-15T00:19:39;5.30;66.14
65478;SHT31;53678;39.642;22.430;2023-02-15T00:22:06;5.22;66.54
65478;SHT31;53678;39.642;22.430;2023-02-15T00:24:32;5.19;66.68
65478;SHT31;53678;39.642;22.430;2023-02-15T00:26:58;5.13;66.78
65478;SHT31;53678;39.642;22.430;2023-02-15T00:29:24;5.13;66.94
65478;SHT31;53678;39.642;22.430;2023-02-15T00:31:50;5.09;67.26
65478;SHT31;53678;39.642;22.430;2023-02-15T00:34:20;5.05;67.18
65478;SHT31;53678;39.642;22.430;2023-02-15T00:36:47;5.12;66.96
65478;SHT31;53678;39.642;22.430;2023-02-15T00:39:15;5.13;66.92
65478;SHT31;53678;39.642;22.430;2023-02-15T00:41:41;5.15;67.09
65478;SHT31;53678;39.642;22.430;2023-02-15T00:44:07;5.09;67.61
65478;SHT31;53678;39.642;22.430;2023-02-15T00:46:33;5.09;67.55
65478;SHT31;53678;39.642;22.430;2023-02-15T00:48:59;5.06;67.70
65478;SHT31;53678;39.642;22.430;2023-02-15T00:51:25;5.06;67.71
65478;SHT31;53678;39.642;22.430;2023-02-15T00:53:51;5.10;67.38
65478;SHT31;53678;39.642;22.430;2023-02-15T00:56:17;4.82;68.05
65478;SHT31;53678;39.642;22.430;2023-02-15T00:58:42;4.73;68.72
65478;SHT31;53678;39.642;22.430;2023-02-15T01:01:11;4.58;68.82
65478;SHT31;53678;39.642;22.430;2023-02-15T01:03:37;4.48;69.36
65478;SHT31;53678;39.642;22.430;2023-02-15T01:06:03;4.40;69.77
65478;SHT31;53678;39.642;22.430;2023-02-15T01:08:30;4.36;69.93
65478;SHT31;53678;39.642;22.430;2023-02-15T01:10:56;4.34;70.18
65478;SHT31;53678;39.642;22.430;2023-02-15T01:13:23;4.25;70.48
65478;SHT31;53678;39.642;22.430;2023-02-15T01:15:55;4.30;70.49
65478;SHT31;53678;39.642;22.430;2023-02-15T01:18:21;4.34;70.58
65478;SHT31;53678;39.642;22.430;2023-02-15T01:20:48;4.34;70.53
65478;SHT31;53678;39.642;22.430;2023-02-15T01:23:14;4.40;70.64
65478;SHT31;53678;39.642;22.430;2023-02-15T01:25:40;4.43;70.11
65478;SHT31;53678;39.642;22.430;2023-02-15T01:28:07;4.54;69.97
65478;SHT31;53678;39.642;22.430;2023-02-15T01:30:33;4.47;69.93
65478;SHT31;53678;39.642;22.430;2023-02-15T01:32:59;4.57;69.61
65478;SHT31;53678;39.642;22.430;2023-02-15T01:35:26;4.51;69.69
65478;SHT31;53678;39.642;22.430;2023-02-15T01:37:54;4.27;69.91
65478;SHT31;53678;39.642;22.430;2023-02-15T01:40:20;3.58;72.56
65478;SHT31;53678;39.642;22.430;2023-02-15T01:42:51;3.66;72.94
65478;SHT31;53678;39.642;22.430;2023-02-15T01:47:59;4.07;71.16
65478;SHT31;53678;39.642;22.430;2023-02-15T01:50:37;4.16;70.91
65478;SHT31;53678;39.642;22.430;2023-02-15T01:53:25;4.20;70.79
65478;SHT31;53678;39.642;22.430;2023-02-15T01:56:02;4.23;70.91
65478;SHT31;53678;39.642;22.430;2023-02-15T01:58:29;4.20;70.69
65478;SHT31;53678;39.642;22.430;2023-02-15T02:00:57;4.25;70.45
65478;SHT31;53678;39.642;22.430;2023-02-15T02:06:05;4.24;70.64
65478;SHT31;53678;39.642;22.430;2023-02-15T02:08:31;4.30;70.49
65478;SHT31;53678;39.642;22.430;2023-02-15T02:10:57;4.29;70.29
65478;SHT31;53678;39.642;22.430;2023-02-15T02:13:23;4.25;70.35
65478;SHT31;53678;39.642;22.430;2023-02-15T02:21:48;4.09;71.05
65478;SHT31;53678;39.642;22.430;2023-02-15T02:27:43;4.09;71.10
65478;SHT31;53678;39.642;22.430;2023-02-15T02:33:19;3.54;72.35
65478;SHT31;53678;39.642;22.430;2023-02-15T02:38:46;3.68;71.98
65478;SHT31;53678;39.642;22.430;2023-02-15T02:41:27;3.79;72.06
65478;SHT31;53678;39.642;22.430;2023-02-15T02:52:01;4.10;71.09
65478;SHT31;53678;39.642;22.430;2023-02-15T02:54:28;4.21;70.59
65478;SHT31;53678;39.642;22.430;2023-02-15T02:56:56;4.17;70.56
65478;SHT31;53678;39.642;22.430;2023-02-15T02:59:28;4.20;70.35
65478;SHT31;53678;39.642;22.430;2023-02-15T03:02:32;4.20;70.39
65478;SHT31;53678;39.642;22.430;2023-02-15T03:05:00;4.24;70.25
65478;SHT31;53678;39.642;22.430;2023-02-15T03:07:31;4.13;70.60
65478;SHT31;53678;39.642;22.430;2023-02-15T03:10:00;4.16;70.51
65478;SHT31;53678;39.642;22.430;2023-02-15T03:14:56;4.02;71.25
65478;SHT31;53678;39.642;22.430;2023-02-15T03:17:27;3.90;71.45
65478;SHT31;53678;39.642;22.430;2023-02-15T03:19:56;3.87;71.82
65478;SHT31;53678;39.642;22.430;2023-02-15T03:22:48;3.69;72.46
65478;SHT31;53678;39.642;22.430;2023-02-15T03:25:20;3.55;72.91
65478;SHT31;53678;39.642;22.430;2023-02-15T03:27:49;3.51;73.29
65478;SHT31;53678;39.642;22.430;2023-02-15T03:30:20;3.46;73.39
65478;SHT31;53678;39.642;22.430;2023-02-15T03:32:48;3.52;73.06
65478;SHT31;53678;39.642;22.430;2023-02-15T03:35:15;3.39;73.22
65478;SHT31;53678;39.642;22.430;2023-02-15T03:37:41;3.37;73.44
65478;SHT31;53678;39.642;22.430;2023-02-15T03:40:31;3.39;73.47
65478;SHT31;53678;39.642;22.430;2023-02-15T03:43:28;3.41;73.37
65478;SHT31;53678;39.642;22.430;2023-02-15T03:46:00;3.39;73.35
65478;SHT31;53678;39.642;22.430;2023-02-15T03:48:35;3.39;73.26
65478;SHT31;53678;39.642;22.430;2023-02-15T03:51:07;3.42;73.10
65478;SHT31;53678;39.642;22.430;2023-02-15T03:53:52;3.46;73.13
65478;SHT31;53678;39.642;22.430;2023-02-15T03:56:19;3.46;72.95
65478;SHT31;53678;39.642;22.430;2023-02-15T03:58:45;3.61;72.74
65478;SHT31;53678;39.642;22.430;2023-02-15T04:01:59;3.48;72.88
65478;SHT31;53678;39.642;22.430;2023-02-15T04:04:47;3.56;72.68
65478;SHT31;53678;39.642;22.430;2023-02-15T04:07:13;3.52;73.02
65478;SHT31;53678;39.642;22.430;2023-02-15T04:09:39;3.50;73.31
65478;SHT31;53678;39.642;22.430;2023-02-15T04:12:23;3.48;73.03
65478;SHT31;53678;39.642;22.430;2023-02-15T04:14:50;3.45;73.27
65478;SHT31;53678;39.642;22.430;2023-02-15T04:17:36;3.50;73.06
65478;SHT31;53678;39.642;22.430;2023-02-15T04:20:02;3.42;73.17
65478;SHT31;53678;39.642;22.430;2023-02-15T04:22:47;3.42;73.07
65478;SHT31;53678;39.642;22.430;2023-02-15T04:25:31;3.41;73.27
65478;SHT31;53678;39.642;22.430;2023-02-15T04:27:57;3.30;73.51
65478;SHT31;53678;39.642;22.430;2023-02-15T04:30:24;3.34;73.34
65478;SHT31;53678;39.642;22.430;2023-02-15T04:32:50;3.37;73.28
65478;SHT31;53678;39.642;22.430;2023-02-15T04:35:17;3.35;73.46
65478;SHT31;53678;39.642;22.430;2023-02-15T04:37:43;3.38;73.33
65478;SHT31;53678;39.642;22.430;2023-02-15T04:40:13;3.38;73.06
65478;SHT31;53678;39.642;22.430;2023-02-15T04:42:38;3.31;73.46
65478;SHT31;53678;39.642;22.430;2023-02-15T04:45:05;3.32;73.51
65478;SHT31;53678;39.642;22.430;2023-02-15T04:47:31;3.39;73.41
65478;SHT31;53678;39.642;22.430;2023-02-15T04:49:56;3.34;73.53
65478;SHT31;53678;39.642;22.430;2023-02-15T04:52:22;3.27;73.67
65478;SHT31;53678;39.642;22.430;2023-02-15T04:54:48;3.31;73.47
65478;SHT31;53678;39.642;22.430;2023-02-15T04:57:15;3.42;73.16
65478;SHT31;53678;39.642;22.430;2023-02-15T04:59:40;3.46;73.22
65478;SHT31;53678;39.642;22.430;2023-02-15T05:02:06;3.41;73.22
65478;SHT31;53678;39.642;22.430;2023-02-15T05:04:32;3.48;73.03
65478;SHT31;53678;39.642;22.430;2023-02-15T05:06:58;3.39;73.08
65478;SHT31;53678;39.642;22.430;2023-02-15T05:09:24;3.42;73.46
65478;SHT31;53678;39.642;22.430;2023-02-15T05:11:50;3.45;73.29
65478;SHT31;53678;39.642;22.430;2023-02-15T05:14:15;3.51;73.41
65478;SHT31;53678;39.642;22.430;2023-02-15T05:16:41;3.48;73.39
65478;SHT31;53678;39.642;22.430;2023-02-15T05:19:07;3.50;73.34
65478;SHT31;53678;39.642;22.430;2023-02-15T05:21:33;3.46;73.44
65478;SHT31;53678;39.642;22.430;2023-02-15T05:23:59;3.37;73.79
65478;SHT31;53678;39.642;22.430;2023-02-15T05:26:25;3.42;73.64
65478;SHT31;53678;39.642;22.430;2023-02-15T05:29:10;3.54;73.20
65478;SHT31;53678;39.642;22.430;2023-02-15T05:31:36;3.48;73.41
65478;SHT31;53678;39.642;22.430;2023-02-15T05:34:02;3.62;73.42
65478;SHT31;53678;39.642;22.430;2023-02-15T05:36:28;3.82;74.04
65478;SHT31;53678;39.642;22.430;2023-02-15T05:38:54;3.73;73.19
65478;SHT31;53678;39.642;22.430;2023-02-15T05:41:20;3.68;73.18
65478;SHT31;53678;39.642;22.430;2023-02-15T05:43:46;3.62;73.29
65478;SHT31;53678;39.642;22.430;2023-02-15T05:46:12;3.55;73.57
65478;SHT31;53678;39.642;22.430;2023-02-15T05:48:38;3.62;73.27
65478;SHT31;53678;39.642;22.430;2023-02-15T05:51:12;3.93;72.90
65478;SHT31;53678;39.642;22.430;2023-02-15T05:53:43;4.45;71.53
65478;SHT31;53678;39.642;22.430;2023-02-15T05:56:10;5.06;69.36
65478;SHT31;53678;39.642;22.430;2023-02-15T05:58:38;5.65;67.15
65478;SHT31;53678;39.642;22.430;2023-02-15T06:01:15;5.91;66.08
65478;SHT31;53678;39.642;22.430;2023-02-15T06:03:44;6.08;65.15
65478;SHT31;53678;39.642;22.430;2023-02-15T06:06:10;6.39;64.41
65478;SHT31;53678;39.642;22.430;2023-02-15T06:08:37;6.56;64.09
65478;SHT31;53678;39.642;22.430;2023-02-15T06:11:03;6.95;63.63
65478;SHT31;53678;39.642;22.430;2023-02-15T06:13:29;7.25;61.48
65478;SHT31;53678;39.642;22.430;2023-02-15T06:15:57;8.08;60.38
65478;SHT31;53678;39.642;22.430;2023-02-15T06:18:22;8.97;57.55
65478;SHT31;53678;39.642;22.430;2023-02-15T06:20:48;9.18;57.26
65478;SHT31;53678;39.642;22.430;2023-02-15T06:23:15;9.41;57.24
65478;SHT31;53678;39.642;22.430;2023-02-15T06:25:40;9.79;55.08
65478;SHT31;53678;39.642;22.430;2023-02-15T06:28:06;10.02;54.94
65478;SHT31;53678;39.642;22.430;2023-02-15T06:30:32;9.87;53.90
65478;SHT31;53678;39.642;22.430;2023-02-15T06:32:58;9.01;56.49
65478;SHT31;53678;39.642;22.430;2023-02-15T06:35:23;8.12;57.65
65478;SHT31;53678;39.642;22.430;2023-02-15T06:37:49;8.28;57.25
65478;SHT31;53678;39.642;22.430;2023-02-15T06:40:15;8.05;57.98
65478;SHT31;53678;39.642;22.430;2023-02-15T06:42:42;6.57;61.26
65478;SHT31;53678;39.642;22.430;2023-02-15T06:45:08;6.47;62.48
65478;SHT31;53678;39.642;22.430;2023-02-15T06:47:34;7.47;59.82
65478;SHT31;53678;39.642;22.430;2023-02-15T06:50:00;7.16;60.28
65478;SHT31;53678;39.642;22.430;2023-02-15T06:52:26;6.40;62.73
65478;SHT31;53678;39.642;22.430;2023-02-15T06:54:52;5.68;64.59
65478;SHT31;53678;39.642;22.430;2023-02-15T06:57:18;4.97;66.70
65478;SHT31;53678;39.642;22.430;2023-02-15T06:59:43;4.71;68.07
65478;SHT31;53678;39.642;22.430;2023-02-15T07:02:11;4.61;68.98
65478;SHT31;53678;39.642;22.430;2023-02-15T07:04:37;5.03;67.62
65478;SHT31;53678;39.642;22.430;2023-02-15T07:07:03;5.06;67.43
65478;SHT31;53678;39.642;22.430;2023-02-15T07:09:29;5.16;66.68
65478;SHT31;53678;39.642;22.430;2023-02-15T07:11:55;5.09;66.87
65478;SHT31;53678;39.642;22.430;2023-02-15T07:14:39;4.91;67.61
65478;SHT31;53678;39.642;22.430;2023-02-15T07:17:06;4.65;68.59
65478;SHT31;53678;39.642;22.430;2023-02-15T07:19:34;4.79;68.52
65478;SHT31;53678;39.642;22.430;2023-02-15T07:22:00;5.30;67.38
65478;SHT31;53678;39.642;22.430;2023-02-15T07:24:26;5.37;66.76
65478;SHT31;53678;39.642;22.430;2023-02-15T07:26:52;5.72;66.86
65478;SHT31;53678;39.642;22.430;2023-02-15T07:29:18;5.68;67.26
65478;SHT31;53678;39.642;22.430;2023-02-15T07:31:43;6.15;66.63
65478;SHT31;53678;39.642;22.430;2023-02-15T07:34:10;6.92;65.31
65478;SHT31;53678;39.642;22.430;2023-02-15T07:36:36;6.71;65.85
65478;SHT31;53678;39.642;22.430;2023-02-15T07:39:02;6.83;65.86
65478;SHT31;53678;39.642;22.430;2023-02-15T07:41:28;7.02;65.29
65478;SHT31;53678;39.642;22.430;2023-02-15T07:43:55;7.29;64.91
65478;SHT31;53678;39.642;22.430;2023-02-15T07:46:21;7.78;64.16
65478;SHT31;53678;39.642;22.430;2023-02-15T07:48:47;7.65;63.88
65478;SHT31;53678;39.642;22.430;2023-02-15T07:51:13;7.73;64.28
65478;SHT31;53678;39.642;22.430;2023-02-15T07:53:41;7.97;64.30
65478;SHT31;53678;39.642;22.430;2023-02-15T07:56:10;8.57;63.04
65478;SHT31;53678;39.642;22.430;2023-02-15T07:58:37;9.14;61.21
65478;SHT31;53678;39.642;22.430;2023-02-15T08:01:33;9.21;60.91
65478;SHT31;53678;39.642;22.430;2023-02-15T08:04:00;9.30;59.94
65478;SHT31;53678;39.642;22.430;2023-02-15T08:06:29;9.79;67.66
65478;SHT31;53678;39.642;22.430;2023-02-15T08:08:55;9.71;59.36
65478;SHT31;53678;39.642;22.430;2023-02-15T08:13:53;9.27;60.29
65478;SHT31;53678;39.642;22.430;2023-02-15T08:16:25;9.15;60.28
65478;SHT31;53678;39.642;22.430;2023-02-15T08:18:52;9.36;60.04
65478;SHT31;53678;39.642;22.430;2023-02-15T08:21:19;9.36;60.54
65478;SHT31;53678;39.642;22.430;2023-02-15T08:23:45;9.04;61.04
65478;SHT31;53678;39.642;22.430;2023-02-15T08:26:11;8.65;62.03
65478;SHT31;53678;39.642;22.430;2023-02-15T08:28:37;8.35;62.74
65478;SHT31;53678;39.642;22.430;2023-02-15T08:31:07;8.28;62.98
65478;SHT31;53678;39.642;22.430;2023-02-15T08:33:34;8.18;62.84
65478;SHT31;53678;39.642;22.430;2023-02-15T08:36:09;8.35;63.25
65478;SHT31;53678;39.642;22.430;2023-02-15T08:38:36;8.24;63.56
65478;SHT31;53678;39.642;22.430;2023-02-15T08:41:13;8.12;63.56
65478;SHT31;53678;39.642;22.430;2023-02-15T08:43:39;8.22;63.43
65478;SHT31;53678;39.642;22.430;2023-02-15T08:46:06;8.11;63.61
65478;SHT31;53678;39.642;22.430;2023-02-15T08:48:32;7.99;63.73
65478;SHT31;53678;39.642;22.430;2023-02-15T08:50:58;8.01;63.93
65478;SHT31;53678;39.642;22.430;2023-02-15T08:53:23;8.09;64.04
65478;SHT31;53678;39.642;22.430;2023-02-15T08:55:57;8.18;64.88
65478;SHT31;53678;39.642;22.430;2023-02-15T08:58:23;8.28;64.49
65478;SHT31;53678;39.642;22.430;2023-02-15T09:00:50;8.15;62.85
65478;SHT31;53678;39.642;22.430;2023-02-15T09:03:16;8.36;62.59
65478;SHT31;53678;39.642;22.430;2023-02-15T09:05:41;8.45;62.19
65478;SHT31;53678;39.642;22.430;2023-02-15T09:08:07;8.60;62.28
65478;SHT31;53678;39.642;22.430;2023-02-15T09:10:33;8.67;61.25
65478;SHT31;53678;39.642;22.430;2023-02-15T09:12:59;8.50;61.98
65478;SHT31;53678;39.642;22.430;2023-02-15T09:15:25;8.53;61.80
65478;SHT31;53678;39.642;22.430;2023-02-15T09:17:50;8.60;61.79
65478;SHT31;53678;39.642;22.430;2023-02-15T09:20:17;8.73;60.99
65478;SHT31;53678;39.642;22.430;2023-02-15T09:22:43;8.73;61.11
65478;SHT31;53678;39.642;22.430;2023-02-15T09:25:09;8.76;61.09
65478;SHT31;53678;39.642;22.430;2023-02-15T09:27:35;8.67;59.72
65478;SHT31;53678;39.642;22.430;2023-02-15T09:30:03;8.79;58.35
65478;SHT31;53678;39.642;22.430;2023-02-15T09:32:29;9.01;58.56
65478;SHT31;53678;39.642;22.430;2023-02-15T09:34:54;9.10;58.23
65478;SHT31;53678;39.642;22.430;2023-02-15T09:37:20;9.28;58.76
65478;SHT31;53678;39.642;22.430;2023-02-15T09:39:46;9.52;57.85
65478;SHT31;53678;39.642;22.430;2023-02-15T09:45:43;10.13;56.72
65478;SHT31;53678;39.642;22.430;2023-02-15T10:01:39;10.41;55.54
65478;SHT31;53678;39.642;22.430;2023-02-15T10:28:52;10.68;55.17
65478;SHT31;53678;39.642;22.430;2023-02-15T10:31:24;10.79;54.98
65478;SHT31;53678;39.642;22.430;2023-02-15T10:36:47;11.12;54.04
65478;SHT31;53678;39.642;22.430;2023-02-15T10:47:41;10.93;53.63
65478;SHT31;53678;39.642;22.430;2023-02-15T10:50:52;10.98;53.43
65478;SHT31;53678;39.642;22.430;2023-02-15T10:56:07;11.13;53.09
65478;SHT31;53678;39.642;22.430;2023-02-15T11:04:51;11.39;51.98
65478;SHT31;53678;39.642;22.430;2023-02-15T11:09:53;11.67;51.15
65478;SHT31;53678;39.642;22.430;2023-02-15T11:12:24;11.58;50.93
65478;SHT31;53678;39.642;22.430;2023-02-15T11:18:00;11.68;51.25
65478;SHT31;53678;39.642;22.430;2023-02-15T11:23:17;11.61;51.24
65478;SHT31;53678;39.642;22.430;2023-02-15T11:25:46;11.58;51.56
65478;SHT31;53678;39.642;22.430;2023-02-15T11:28:46;11.47;50.96
65478;SHT31;53678;39.642;22.430;2023-02-15T11:31:16;11.44;51.04
65478;SHT31;53678;39.642;22.430;2023-02-15T11:33:51;11.53;51.27
65478;SHT31;53678;39.642;22.430;2023-02-15T11:36:39;12.05;60.00
65478;SHT31;53678;39.642;22.430;2023-02-15T11:39:11;11.71;52.01
65478;SHT31;53678;39.642;22.430;2023-02-15T11:41:44;11.41;52.05
65478;SHT31;53678;39.642;22.430;2023-02-15T11:44:15;11.26;53.23
65478;SHT31;53678;39.642;22.430;2023-02-15T11:46:43;11.23;52.73
65478;SHT31;53678;39.642;22.430;2023-02-15T11:49:33;11.18;52.72
65478;SHT31;53678;39.642;22.430;2023-02-15T11:52:02;11.03;53.00
65478;SHT31;53678;39.642;22.430;2023-02-15T11:54:32;11.15;52.92
65478;SHT31;53678;39.642;22.430;2023-02-15T11:57:28;11.23;54.22
65478;SHT31;53678;39.642;22.430;2023-02-15T12:02:37;11.71;52.95
65478;SHT31;53678;39.642;22.430;2023-02-15T12:05:13;11.51;53.15
65478;SHT31;53678;39.642;22.430;2023-02-15T12:07:46;11.58;53.11
65478;SHT31;53678;39.642;22.430;2023-02-15T12:10:29;11.27;53.67
65478;SHT31;53678;39.642;22.430;2023-02-15T12:13:13;11.23;53.39
65478;SHT31;53678;39.642;22.430;2023-02-15T12:15:45;11.29;53.14
65478;SHT31;53678;39.642;22.430;2023-02-15T12:18:36;11.41;53.18
65478;SHT31;53678;39.642;22.430;2023-02-15T12:21:24;11.53;53.29
65478;SHT31;53678;39.642;22.430;2023-02-15T12:23:52;11.53;53.37
65478;SHT31;53678;39.642;22.430;2023-02-15T12:26:27;11.41;53.72
65478;SHT31;53678;39.642;22.430;2023-02-15T12:28:54;11.58;52.44
65478;SHT31;53678;39.642;22.430;2023-02-15T12:31:44;11.63;52.48
65478;SHT31;53678;39.642;22.430;2023-02-15T12:34:32;11.58;52.54
65478;SHT31;53678;39.642;22.430;2023-02-15T12:37:02;11.64;52.55
65478;SHT31;53678;39.642;22.430;2023-02-15T12:39:33;11.34;52.74
65478;SHT31;53678;39.642;22.430;2023-02-15T12:42:01;11.54;53.12
65478;SHT31;53678;39.642;22.430;2023-02-15T12:49:40;11.58;52.88
65478;SHT31;53678;39.642;22.430;2023-02-15T12:52:24;11.67;52.94
65478;SHT31;53678;39.642;22.430;2023-02-15T12:54:50;11.75;53.28
65478;SHT31;53678;39.642;22.430;2023-02-15T12:57:25;11.91;52.13
65478;SHT31;53678;39.642;22.430;2023-02-15T13:02:28;11.81;51.12
65478;SHT31;53678;39.642;22.430;2023-02-15T13:04:56;11.67;51.74
65478;SHT31;53678;39.642;22.430;2023-02-15T13:07:25;12.02;51.10
65478;SHT31;53678;39.642;22.430;2023-02-15T13:09:55;11.95;51.39
65478;SHT31;53678;39.642;22.430;2023-02-15T13:12:26;11.89;51.29
65478;SHT31;53678;39.642;22.430;2023-02-15T13:14:54;12.14;50.48
65478;SHT31;53678;39.642;22.430;2023-02-15T13:17:26;12.06;50.46
65478;SHT31;53678;39.642;22.430;2023-02-15T13:19:56;11.97;51.19
65478;SHT31;53678;39.642;22.430;2023-02-15T13:22:37;12.11;51.08
65478;SHT31;53678;39.642;22.430;2023-02-15T13:25:18;12.14;50.69
65478;SHT31;53678;39.642;22.430;2023-02-15T13:27:46;11.84;51.08
65478;SHT31;53678;39.642;22.430;2023-02-15T13:30:27;11.77;51.52
65478;SHT31;53678;39.642;22.430;2023-02-15T13:33:00;11.70;52.05
65478;SHT31;53678;39.642;22.430;2023-02-15T13:35:38;12.02;51.54
65478;SHT31;53678;39.642;22.430;2023-02-15T13:38:23;11.99;52.17
65478;SHT31;53678;39.642;22.430;2023-02-15T13:41:04;11.89;52.42
65478;SHT31;53678;39.642;22.430;2023-02-15T13:52:22;11.71;52.65
65478;SHT31;53678;39.642;22.430;2023-02-15T14:03:26;11.70;52.06
65478;SHT31;53678;39.642;22.430;2023-02-15T14:06:25;11.61;52.52
65478;SHT31;53678;39.642;22.430;2023-02-15T14:09:16;11.77;51.65
65478;SHT31;53678;39.642;22.430;2023-02-15T14:17:14;11.81;51.49
65478;SHT31;53678;39.642;22.430;2023-02-15T14:19:57;11.79;51.46
65478;SHT31;53678;39.642;22.430;2023-02-15T14:22:40;11.66;51.78
65478;SHT31;53678;39.642;22.430;2023-02-15T14:28:27;11.71;51.68
65478;SHT31;53678;39.642;22.430;2023-02-15T14:30:56;11.68;51.54
65478;SHT31;53678;39.642;22.430;2023-02-15T14:33:41;11.89;51.01
65478;SHT31;53678;39.642;22.430;2023-02-15T14:36:13;11.63;51.33
65478;SHT31;53678;39.642;22.430;2023-02-15T14:38:49;11.63;51.07
65478;SHT31;53678;39.642;22.430;2023-02-15T14:41:29;11.43;51.67
65478;SHT31;53678;39.642;22.430;2023-02-15T14:44:23;11.43;51.43
65478;SHT31;53678;39.642;22.430;2023-02-15T14:49:44;11.33;52.20
65478;SHT31;53678;39.642;22.430;2023-02-15T14:52:11;11.50;51.51
65478;SHT31;53678;39.642;22.430;2023-02-15T14:59:42;11.46;51.71
65478;SHT31;53678;39.642;22.430;2023-02-15T15:04:38;11.26;52.24
65478;SHT31;53678;39.642;22.430;2023-02-15T15:09:42;11.54;51.70
65478;SHT31;53678;39.642;22.430;2023-02-15T15:14:48;11.23;51.86
65478;SHT31;53678;39.642;22.430;2023-02-15T15:22:40;11.05;52.31
65478;SHT31;53678;39.642;22.430;2023-02-15T15:27:46;11.02;52.46
65478;SHT31;53678;39.642;22.430;2023-02-15T15:49:05;10.89;53.21
65478;SHT31;53678;39.642;22.430;2023-02-15T15:51:33;10.92;53.20
65478;SHT31;53678;39.642;22.430;2023-02-15T15:54:01;10.76;53.04
65478;SHT31;53678;39.642;22.430;2023-02-15T15:56:31;10.75;53.47
65478;SHT31;53678;39.642;22.430;2023-02-15T15:59:05;10.71;53.40
65478;SHT31;53678;39.642;22.430;2023-02-15T16:01:39;10.64;53.15
65478;SHT31;53678;39.642;22.430;2023-02-15T16:04:05;10.57;53.16
65478;SHT31;53678;39.642;22.430;2023-02-15T16:08:56;10.44;54.11
65478;SHT31;53678;39.642;22.430;2023-02-15T16:11:27;10.44;54.07
65478;SHT31;53678;39.642;22.430;2023-02-15T16:13:54;10.42;54.14
65478;SHT31;53678;39.642;22.430;2023-02-15T16:16:23;10.34;54.29
65478;SHT31;53678;39.642;22.430;2023-02-15T16:18:50;10.44;54.22
65478;SHT31;53678;39.642;22.430;2023-02-15T16:21:27;10.38;54.63
65478;SHT31;53678;39.642;22.430;2023-02-15T16:24:16;10.29;55.04
65478;SHT31;53678;39.642;22.430;2023-02-15T16:27:02;10.18;55.14
65478;SHT31;53678;39.642;22.430;2023-02-15T16:29:33;10.11;55.13
65478;SHT31;53678;39.642;22.430;2023-02-15T16:32:01;10.04;55.51
65478;SHT31;53678;39.642;22.430;2023-02-15T16:34:29;10.06;55.62
65478;SHT31;53678;39.642;22.430;2023-02-15T16:37:18;9.99;55.76
65478;SHT31;53678;39.642;22.430;2023-02-15T16:39:45;10.02;56.35
65478;SHT31;53678;39.642;22.430;2023-02-15T16:42:13;10.06;56.16
65478;SHT31;53678;39.642;22.430;2023-02-15T16:44:41;9.92;56.71
65478;SHT31;53678;39.642;22.430;2023-02-15T16:47:32;9.93;57.03
65478;SHT31;53678;39.642;22.430;2023-02-15T16:50:01;9.76;58.32
65478;SHT31;53678;39.642;22.430;2023-02-15T16:52:28;9.73;59.10
65478;SHT31;53678;39.642;22.430;2023-02-15T16:54:59;9.52;59.48
65478;SHT31;53678;39.642;22.430;2023-02-15T16:57:28;9.44;60.16
65478;SHT31;53678;39.642;22.430;2023-02-15T17:00:04;9.30;60.74
65478;SHT31;53678;39.642;22.430;2023-02-15T17:02:33;9.21;61.27
65478;SHT31;53678;39.642;22.430;2023-02-15T17:05:19;9.17;61.66
65478;SHT31;53678;39.642;22.430;2023-02-15T17:10:40;8.91;62.55
65478;SHT31;53678;39.642;22.430;2023-02-15T17:13:11;8.90;62.64
65478;SHT31;53678;39.642;22.430;2023-02-15T17:15:42;8.84;62.98
65478;SHT31;53678;39.642;22.430;2023-02-15T17:18:22;8.93;62.96
65478;SHT31;53678;39.642;22.430;2023-02-15T17:20:52;8.84;63.11
65478;SHT31;53678;39.642;22.430;2023-02-15T17:25:55;8.65;63.82
65478;SHT31;53678;39.642;22.430;2023-02-15T17:28:24;8.55;64.07
65478;SHT31;53678;39.642;22.430;2023-02-15T17:30:52;8.56;63.88
65478;SHT31;53678;39.642;22.430;2023-02-15T17:36:07;8.49;64.51
65478;SHT31;53678;39.642;22.430;2023-02-15T17:38:39;8.44;64.44
65478;SHT31;53678;39.642;22.430;2023-02-15T17:41:05;8.45;64.66
65478;SHT31;53678;39.642;22.430;2023-02-15T17:43:31;8.44;64.60
65478;SHT31;53678;39.642;22.430;2023-02-15T17:45:57;8.46;64.67
65478;SHT31;53678;39.642;22.430;2023-02-15T17:48:51;8.50;64.39
65478;SHT31;53678;39.642;22.430;2023-02-15T17:51:18;8.36;64.25
65478;SHT31;53678;39.642;22.430;2023-02-15T17:53:45;8.17;65.06
65478;SHT31;53678;39.642;22.430;2023-02-15T17:56:29;7.87;65.66
65478;SHT31;53678;39.642;22.430;2023-02-15T17:58:55;7.83;66.44
65478;SHT31;53678;39.642;22.430;2023-02-15T18:01:21;7.62;66.69
65478;SHT31;53678;39.642;22.430;2023-02-15T18:04:08;7.46;67.35
65478;SHT31;53678;39.642;22.430;2023-02-15T18:06:54;7.69;67.18
65478;SHT31;53678;39.642;22.430;2023-02-15T18:09:38;7.49;67.36
65478;SHT31;53678;39.642;22.430;2023-02-15T18:12:27;7.47;67.56
65478;SHT31;53678;39.642;22.430;2023-02-15T18:14:54;7.39;67.71
65478;SHT31;53678;39.642;22.430;2023-02-15T18:17:33;7.49;67.35
65478;SHT31;53678;39.642;22.430;2023-02-15T18:20:00;7.40;67.46
65478;SHT31;53678;39.642;22.430;2023-02-15T18:22:29;7.29;68.08
65478;SHT31;53678;39.642;22.430;2023-02-15T18:24:55;7.23;68.39
65478;SHT31;53678;39.642;22.430;2023-02-15T18:27:23;7.19;68.34
65478;SHT31;53678;39.642;22.430;2023-02-15T18:29:48;7.16;68.32
65478;SHT31;53678;39.642;22.430;2023-02-15T18:32:29;7.16;68.40
65478;SHT31;53678;39.642;22.430;2023-02-15T18:34:57;7.29;68.03
65478;SHT31;53678;39.642;22.430;2023-02-15T18:37:25;7.22;67.70
65478;SHT31;53678;39.642;22.430;2023-02-15T18:39:53;7.22;68.05
65478;SHT31;53678;39.642;22.430;2023-02-15T18:42:28;7.14;68.21
65478;SHT31;53678;39.642;22.430;2023-02-15T18:45:24;7.14;68.53
65478;SHT31;53678;39.642;22.430;2023-02-15T18:47:53;7.11;68.51
65478;SHT31;53678;39.642;22.430;2023-02-15T18:50:40;7.18;68.53
65478;SHT31;53678;39.642;22.430;2023-02-15T18:53:18;7.15;68.81
65478;SHT31;53678;39.642;22.430;2023-02-15T18:55:44;7.07;69.15
65478;SHT31;53678;39.642;22.430;2023-02-15T18:58:16;7.15;68.94
65478;SHT31;53678;39.642;22.430;2023-02-15T19:00:42;7.12;69.13
65478;SHT31;53678;39.642;22.430;2023-02-15T19:03:12;7.20;69.18